Decoded Metar for PAIG (IGIUGIG in AK, USA) (IATA:AIG) | Meteo·Mobile Aviation Weather
aviador You're here:

PAIG Decoded Metar

IGIUGIG in AK, USA
Report Time2018-12-17 14:56:00
UTC Time2018-12-17 15:13:45
Flight Rules vfr VFR
Wind190° at 09 kt
W.Decomp.*RWY 23: 4.6 kt HW 7.7 kt LCW
W.Rank190° ranks 9
Current wind is above 190° avg. (7.0)
Visibility9999 m
Phenomena:N/A
Clouds:N/A
Expected CloudBase > 800 ft AGL from Temp-Dew spread
CeilingNone
Temp-26°C (ISA -41)
Dew Point-28°C (83% RH)
AAT-33.0°C
QNH986 hPa
Density Alt-4,252 ft
Elevation92 ft
Report Wrong Elevation
Raw Report
PAIG 171456Z AUTO 19009KT 10SM CLR M26/M28 A2911 RMK AO2 SLP869
T12561278 53010 FZRANO $=

Extra information for PAIG:More info

Metar Taf Metar & Taf Last 4 Metars F.Rules Stats Wind Profile Meteogram Temp Stats Airport Information Weather charts Add Link Nearby VenuesMetar ALERT Operation Metar Decoded Social comments

AIRNAV info for PAIG